Time;durP1;ratioP1;P1;durP2;ratioP2;P2;SDS_P1;SDS_P2;PMS_P1;PMS_P2;Temp;Humidity;BMP_temperature;BMP_pressure;BME280_temperature;BME280_humidity;BME280_pressure;Samples;Min_cycle;Max_cycle;Signal;HPM_P1;HPM_P2
2023/12/06 00:00:32;;;;;;;1.05;0.60;;;10.70;96.10;;;;;;5034640;28;20036;-44
2023/12/06 00:02:59;;;;;;;0.63;0.47;;;10.70;96.20;;;;;;5034359;28;20029;-42
2023/12/06 00:05:24;;;;;;;0.30;0.30;;;10.70;96.20;;;;;;5034518;28;20032;-44
2023/12/06 00:07:50;;;;;;;0.70;0.57;;;10.70;96.20;;;;;;5033617;28;20029;-43
2023/12/06 00:10:16;;;;;;;0.60;0.47;;;10.70;96.30;;;;;;5034058;28;20371;-43
2023/12/06 00:12:41;;;;;;;0.60;0.50;;;10.70;96.30;;;;;;5033548;28;20033;-43
2023/12/06 00:15:08;;;;;;;0.30;0.30;;;10.60;96.30;;;;;;5033768;28;20177;-43
2023/12/06 00:17:33;;;;;;;0.20;0.20;;;10.60;96.30;;;;;;5033828;28;20029;-44
2023/12/06 00:19:59;;;;;;;0.95;0.55;;;10.60;96.30;;;;;;5033847;28;20028;-44
2023/12/06 00:22:24;;;;;;;0.60;0.45;;;10.60;96.40;;;;;;5033282;28;20440;-44
2023/12/06 00:24:53;;;;;;;0.55;0.40;;;10.60;96.40;;;;;;5033977;28;20025;-44
2023/12/06 00:27:19;;;;;;;1.05;0.57;;;10.60;96.50;;;;;;5032762;28;20045;-46
2023/12/06 00:29:45;;;;;;;0.57;0.30;;;10.50;96.50;;;;;;5033490;28;20029;-45
2023/12/06 00:32:11;;;;;;;1.00;0.52;;;10.50;96.50;;;;;;5034086;28;20538;-45
2023/12/06 00:34:36;;;;;;;0.30;0.28;;;10.50;96.50;;;;;;5033488;28;20072;-44
2023/12/06 00:37:02;;;;;;;0.30;0.30;;;10.50;96.60;;;;;;5033112;28;20048;-45
2023/12/06 00:39:27;;;;;;;0.70;0.50;;;10.50;96.60;;;;;;5033015;28;20067;-45
2023/12/06 00:41:53;;;;;;;1.02;0.47;;;10.50;96.60;;;;;;5033222;28;20109;-44
2023/12/06 00:44:19;;;;;;;0.60;0.30;;;10.50;96.60;;;;;;5031696;28;20437;-45
2023/12/06 00:46:45;;;;;;;0.70;0.30;;;10.50;96.70;;;;;;5033579;28;20057;-44
2023/12/06 00:49:11;;;;;;;0.30;0.30;;;10.50;96.70;;;;;;5033106;28;20038;-45
2023/12/06 00:51:37;;;;;;;0.40;0.20;;;10.40;96.70;;;;;;5033245;28;20112;-44
2023/12/06 00:54:02;;;;;;;0.68;0.40;;;10.50;96.70;;;;;;5033405;28;20143;-45
2023/12/06 00:56:28;;;;;;;0.50;0.40;;;10.40;96.80;;;;;;5033158;28;20391;-44
2023/12/06 00:58:54;;;;;;;0.32;0.30;;;10.40;96.80;;;;;;5032668;28;20029;-45
2023/12/06 01:01:19;;;;;;;0.80;0.50;;;10.40;96.80;;;;;;5032837;28;20029;-45
2023/12/06 01:03:45;;;;;;;0.77;0.40;;;10.40;96.80;;;;;;5033826;28;20079;-45
2023/12/06 01:06:11;;;;;;;0.40;0.30;;;10.40;96.80;;;;;;5031250;28;20032;-45
2023/12/06 01:08:36;;;;;;;0.43;0.30;;;10.40;96.90;;;;;;5033079;28;20399;-45
2023/12/06 01:11:02;;;;;;;0.65;0.30;;;10.40;96.90;;;;;;5033426;28;20026;-45
2023/12/06 01:13:28;;;;;;;0.77;0.40;;;10.40;96.90;;;;;;5033003;28;20452;-45
2023/12/06 01:15:54;;;;;;;0.63;0.30;;;10.40;96.90;;;;;;5032346;28;20029;-45
2023/12/06 01:18:19;;;;;;;0.40;0.30;;;10.30;96.90;;;;;;5032507;28;20032;-45
2023/12/06 01:20:45;;;;;;;0.20;0.20;;;10.30;97.00;;;;;;5032167;28;20032;-45
2023/12/06 01:23:10;;;;;;;0.60;0.30;;;10.30;97.00;;;;;;5032940;28;20037;-45
2023/12/06 01:25:36;;;;;;;1.05;0.40;;;10.30;97.00;;;;;;5032394;28;20036;-45
2023/12/06 01:28:03;;;;;;;0.30;0.30;;;10.30;97.00;;;;;;5032413;28;20032;-45
2023/12/06 01:30:28;;;;;;;0.30;0.30;;;10.30;97.00;;;;;;5032092;28;20025;-45
2023/12/06 01:32:54;;;;;;;0.20;0.13;;;10.30;97.10;;;;;;5032785;28;20025;-45
2023/12/06 01:35:19;;;;;;;0.57;0.30;;;10.30;97.10;;;;;;5032007;28;20025;-45
2023/12/06 01:37:45;;;;;;;0.40;0.30;;;10.30;97.10;;;;;;5031835;28;20032;-45
2023/12/06 01:40:11;;;;;;;0.30;0.25;;;10.30;97.10;;;;;;5032278;28;20105;-45
2023/12/06 01:42:36;;;;;;;0.40;0.20;;;10.30;97.10;;;;;;5032536;28;20168;-45
2023/12/06 01:45:02;;;;;;;0.45;0.30;;;10.30;97.20;;;;;;5032504;28;20021;-45
2023/12/06 01:47:30;;;;;;;0.75;0.40;;;10.20;97.10;;;;;;5031951;28;20505;-45
2023/12/06 01:50:01;;;;;;;0.28;0.20;;;10.20;97.20;;;;;;5031716;28;20368;-45
2023/12/06 01:52:27;;;;;;;0.17;0.17;;;10.20;97.20;;;;;;5031804;28;20026;-45
2023/12/06 01:54:58;;;;;;;0.40;0.30;;;10.20;97.20;;;;;;5032204;28;20034;-44
2023/12/06 01:57:27;;;;;;;0.43;0.30;;;10.30;97.20;;;;;;5031831;28;20018;-41
2023/12/06 01:59:53;;;;;;;0.30;0.30;;;10.20;97.20;;;;;;5032085;28;20029;-45
2023/12/06 02:02:19;;;;;;;0.45;0.20;;;10.20;97.20;;;;;;5031876;28;20057;-45
2023/12/06 02:04:45;;;;;;;0.20;0.20;;;10.20;97.20;;;;;;5031785;28;20064;-43
2023/12/06 02:07:11;;;;;;;0.30;0.20;;;10.20;97.20;;;;;;5031818;28;20029;-44
2023/12/06 02:09:37;;;;;;;0.25;0.20;;;10.20;97.20;;;;;;5031393;28;20507;-44
2023/12/06 02:12:03;;;;;;;0.20;0.15;;;10.20;97.20;;;;;;5031538;28;20057;-44
2023/12/06 02:14:33;;;;;;;0.35;0.30;;;10.20;97.30;;;;;;5031475;28;20022;-43
2023/12/06 02:17:00;;;;;;;0.30;0.30;;;10.20;97.30;;;;;;5031423;28;20076;-44
2023/12/06 02:19:27;;;;;;;0.20;0.20;;;10.20;97.30;;;;;;5031231;28;20037;-44
2023/12/06 02:21:55;;;;;;;0.60;0.32;;;10.20;97.30;;;;;;5031576;28;20061;-44
2023/12/06 02:24:22;;;;;;;0.25;0.25;;;10.20;97.30;;;;;;5031696;28;20108;-43
2023/12/06 02:26:52;;;;;;;0.30;0.20;;;10.20;97.30;;;;;;5031078;28;20479;-44
2023/12/06 02:29:22;;;;;;;0.30;0.20;;;10.20;97.30;;;;;;5032649;28;20116;-43
2023/12/06 02:31:48;;;;;;;0.17;0.13;;;10.20;97.30;;;;;;5033560;28;20029;-44
2023/12/06 02:34:21;;;;;;;0.20;0.20;;;10.20;97.30;;;;;;5031705;28;20022;-44
2023/12/06 02:36:50;;;;;;;0.40;0.20;;;10.20;97.40;;;;;;5032178;28;20395;-44
2023/12/06 02:39:17;;;;;;;0.28;0.20;;;10.20;97.40;;;;;;5032798;28;20470;-44
2023/12/06 02:41:43;;;;;;;0.20;0.20;;;10.10;97.30;;;;;;5031233;28;20033;-44
2023/12/06 02:44:09;;;;;;;0.60;0.20;;;10.10;97.40;;;;;;5031281;28;20021;-44
2023/12/06 02:46:36;;;;;;;0.40;0.20;;;10.10;97.40;;;;;;5030988;28;20022;-44
2023/12/06 02:49:02;;;;;;;0.57;0.20;;;10.10;97.40;;;;;;5031065;28;20029;-43
2023/12/06 02:51:29;;;;;;;0.20;0.20;;;10.10;97.40;;;;;;5033744;28;20018;-42
2023/12/06 02:53:55;;;;;;;0.40;0.20;;;10.10;97.40;;;;;;5036740;28;20013;-44
2023/12/06 02:56:20;;;;;;;0.30;0.20;;;10.10;97.40;;;;;;5034980;28;20087;-44
2023/12/06 02:58:46;;;;;;;0.32;0.10;;;10.10;97.40;;;;;;5035303;28;20017;-44
2023/12/06 03:01:12;;;;;;;0.20;0.20;;;10.10;97.40;;;;;;5036712;28;20038;-44
2023/12/06 03:03:37;;;;;;;0.28;0.25;;;10.10;97.50;;;;;;5035855;28;20072;-44
2023/12/06 03:06:03;;;;;;;0.20;0.17;;;10.10;97.50;;;;;;5034922;28;20021;-44
2023/12/06 03:08:29;;;;;;;0.10;0.10;;;10.10;97.50;;;;;;5034669;28;20035;-43
2023/12/06 03:10:54;;;;;;;0.20;0.20;;;10.10;97.50;;;;;;5035771;28;20022;-43
2023/12/06 03:13:20;;;;;;;0.75;0.20;;;10.10;97.50;;;;;;5036604;28;20017;-44
2023/12/06 03:15:45;;;;;;;0.20;0.20;;;10.10;97.50;;;;;;5035877;28;20095;-44
2023/12/06 03:18:11;;;;;;;0.32;0.20;;;10.10;97.50;;;;;;5036029;28;20030;-43
2023/12/06 03:20:37;;;;;;;0.25;0.17;;;10.10;97.50;;;;;;5034707;28;20510;-44
2023/12/06 03:23:03;;;;;;;0.22;0.22;;;10.10;97.60;;;;;;5034486;28;20099;-44
2023/12/06 03:25:28;;;;;;;0.30;0.20;;;10.10;97.50;;;;;;5034590;28;20029;-44
2023/12/06 03:27:55;;;;;;;0.10;0.10;;;10.10;97.60;;;;;;5036025;28;20084;-44
2023/12/06 03:30:20;;;;;;;0.30;0.13;;;10.10;97.60;;;;;;5035437;28;20105;-44
2023/12/06 03:32:46;;;;;;;0.20;0.20;;;10.10;97.60;;;;;;5034320;28;20100;-44
2023/12/06 03:35:11;;;;;;;0.10;0.10;;;10.10;97.60;;;;;;5034959;28;20061;-43
2023/12/06 03:37:37;;;;;;;0.10;0.10;;;10.10;97.60;;;;;;5034134;28;20042;-44
2023/12/06 03:40:03;;;;;;;0.10;0.10;;;10.10;97.60;;;;;;5034152;28;20017;-43
2023/12/06 03:42:29;;;;;;;0.80;0.17;;;10.10;97.60;;;;;;5034149;28;20497;-44
2023/12/06 03:44:54;;;;;;;0.30;0.30;;;10.10;97.60;;;;;;5034669;28;20479;-43
2023/12/06 03:47:20;;;;;;;0.20;0.13;;;10.10;97.60;;;;;;5034526;28;20072;-43
2023/12/06 03:49:45;;;;;;;0.25;0.20;;;10.10;98.00;;;;;;5033961;28;20468;-44
2023/12/06 03:52:11;;;;;;;0.20;0.10;;;10.00;97.60;;;;;;5034043;28;20026;-42
2023/12/06 03:54:37;;;;;;;0.30;0.20;;;10.00;97.60;;;;;;5033929;28;20438;-44
2023/12/06 03:57:02;;;;;;;0.10;0.10;;;10.00;97.60;;;;;;5033757;28;20025;-42
2023/12/06 03:59:28;;;;;;;0.20;0.20;;;10.00;97.60;;;;;;5033735;28;20075;-43
2023/12/06 04:01:53;;;;;;;0.20;0.20;;;10.00;97.70;;;;;;5033902;28;20025;-44
2023/12/06 04:04:19;;;;;;;0.20;0.20;;;10.00;97.70;;;;;;5033703;28;20033;-43
2023/12/06 04:06:45;;;;;;;0.60;0.20;;;10.10;97.70;;;;;;5033703;28;20087;-44
2023/12/06 04:09:13;;;;;;;0.52;0.15;;;10.10;97.70;;;;;;5033421;28;20026;-43
2023/12/06 04:11:39;;;;;;;0.20;0.10;;;10.00;97.70;;;;;;5033791;28;20437;-44
2023/12/06 04:14:04;;;;;;;0.10;0.10;;;10.00;97.70;;;;;;5034271;28;20022;-43
2023/12/06 04:16:30;;;;;;;0.15;0.10;;;10.10;97.70;;;;;;5033443;28;20025;-43
2023/12/06 04:18:56;;;;;;;0.13;0.13;;;10.00;97.70;;;;;;5034485;28;20030;-44
2023/12/06 04:21:22;;;;;;;0.38;0.20;;;10.00;97.80;;;;;;5033687;28;20075;-44
2023/12/06 04:23:50;;;;;;;0.10;0.10;;;10.00;97.70;;;;;;5033333;28;20116;-44
2023/12/06 04:26:16;;;;;;;0.85;0.30;;;10.00;97.70;;;;;;5034844;28;20032;-44
2023/12/06 04:28:41;;;;;;;0.20;0.10;;;10.10;97.80;;;;;;5033403;28;20034;-44
2023/12/06 04:31:07;;;;;;;0.30;0.15;;;10.00;97.80;;;;;;5033432;28;20407;-43
2023/12/06 04:33:33;;;;;;;0.50;0.30;;;10.00;97.80;;;;;;5033501;28;20017;-44
2023/12/06 04:35:58;;;;;;;0.43;0.10;;;10.00;97.80;;;;;;5034603;28;20013;-43
2023/12/06 04:38:24;;;;;;;0.20;0.10;;;10.00;97.80;;;;;;5033988;28;20475;-44
2023/12/06 04:40:50;;;;;;;0.10;0.10;;;10.00;97.80;;;;;;5034348;28;20404;-43
2023/12/06 04:43:17;;;;;;;0.20;0.20;;;10.00;97.80;;;;;;5034241;28;20029;-43
2023/12/06 04:45:43;;;;;;;0.30;0.20;;;10.00;97.80;;;;;;5033597;28;20033;-43
2023/12/06 04:48:09;;;;;;;0.20;0.20;;;10.00;97.80;;;;;;5033187;28;20026;-44
2023/12/06 04:50:35;;;;;;;0.25;0.20;;;10.00;97.80;;;;;;5032948;28;20021;-44
2023/12/06 04:53:00;;;;;;;0.30;0.20;;;10.00;97.80;;;;;;5032814;28;20036;-43
2023/12/06 04:55:26;;;;;;;0.43;0.30;;;10.00;97.80;;;;;;5032746;28;20026;-44
2023/12/06 04:57:52;;;;;;;0.30;0.20;;;10.00;98.10;;;;;;5032718;28;20028;-42
2023/12/06 05:00:18;;;;;;;2.55;0.30;;;10.00;97.80;;;;;;5032615;28;20032;-42
2023/12/06 05:02:44;;;;;;;0.35;0.25;;;10.00;97.80;;;;;;5032870;28;20097;-44
2023/12/06 05:05:09;;;;;;;0.30;0.22;;;10.00;97.80;;;;;;5032659;28;20030;-44
2023/12/06 05:07:35;;;;;;;0.57;0.20;;;10.00;97.80;;;;;;5032401;28;20387;-44
2023/12/06 05:10:01;;;;;;;0.30;0.22;;;10.00;97.80;;;;;;5032358;28;20041;-44
2023/12/06 05:12:27;;;;;;;0.40;0.30;;;10.00;97.90;;;;;;5032619;28;20104;-43
2023/12/06 05:14:52;;;;;;;0.10;0.10;;;10.00;97.90;;;;;;5032933;28;20025;-44
2023/12/06 05:17:18;;;;;;;0.20;0.20;;;10.00;97.90;;;;;;5033053;28;20471;-44
2023/12/06 05:19:44;;;;;;;0.40;0.40;;;10.00;98.00;;;;;;5032317;28;20025;-44
2023/12/06 05:22:10;;;;;;;0.35;0.20;;;10.00;98.00;;;;;;5032388;28;20040;-43
2023/12/06 05:24:35;;;;;;;0.30;0.30;;;10.10;98.10;;;;;;5032147;28;20045;-44
2023/12/06 05:27:01;;;;;;;0.13;0.10;;;10.10;98.10;;;;;;5032365;28;20036;-43
2023/12/06 05:29:27;;;;;;;0.10;0.10;;;10.10;98.00;;;;;;5032499;28;20029;-44
2023/12/06 05:31:52;;;;;;;0.10;0.10;;;10.20;98.00;;;;;;5033504;28;20087;-43
2023/12/06 05:34:19;;;;;;;0.20;0.20;;;10.20;97.90;;;;;;5032329;28;20022;-43
2023/12/06 05:36:44;;;;;;;0.10;0.10;;;10.30;97.90;;;;;;5032235;28;20045;-44
2023/12/06 05:39:10;;;;;;;0.20;0.20;;;10.30;98.00;;;;;;5032947;28;20033;-44
2023/12/06 05:41:36;;;;;;;0.40;0.20;;;10.30;97.70;;;;;;5031884;28;20105;-44
2023/12/06 05:44:05;;;;;;;1.55;0.70;;;10.30;97.70;;;;;;5031943;28;20025;-43
2023/12/06 05:46:30;;;;;;;1.35;1.00;;;10.40;97.50;;;;;;5032082;28;20383;-41
2023/12/06 05:48:56;;;;;;;1.92;1.33;;;10.40;97.30;;;;;;5031852;28;20035;-42
2023/12/06 05:51:22;;;;;;;2.05;1.58;;;10.40;97.20;;;;;;5032606;28;20021;-39
2023/12/06 05:53:48;;;;;;;1.65;1.33;;;10.40;97.20;;;;;;5032266;28;20463;-43
2023/12/06 05:56:14;;;;;;;1.80;1.40;;;10.40;97.20;;;;;;5031724;28;20032;-43
2023/12/06 05:58:40;;;;;;;2.95;1.65;;;10.40;97.20;;;;;;5032727;28;20030;-43
2023/12/06 06:01:06;;;;;;;2.20;1.50;;;10.40;97.20;;;;;;5031732;28;20100;-44
2023/12/06 06:03:31;;;;;;;2.20;1.20;;;10.40;97.20;;;;;;5032154;28;20038;-43
2023/12/06 06:05:57;;;;;;;2.13;1.45;;;10.40;97.20;;;;;;5031405;28;20046;-42
2023/12/06 06:08:22;;;;;;;1.70;1.40;;;10.50;97.20;;;;;;5031316;28;20029;-43
2023/12/06 06:10:48;;;;;;;2.08;1.30;;;10.50;97.20;;;;;;5031470;28;20053;-43
2023/12/06 06:13:13;;;;;;;1.20;1.00;;;10.40;97.20;;;;;;5031472;28;20017;-40
2023/12/06 06:15:39;;;;;;;1.67;1.40;;;10.40;97.10;;;;;;5029956;28;20036;-43
2023/12/06 06:18:05;;;;;;;1.63;1.20;;;10.40;97.10;;;;;;5031725;28;20079;-43
2023/12/06 06:20:33;;;;;;;1.73;1.13;;;10.40;97.20;;;;;;5031277;28;20029;-43
2023/12/06 06:22:59;;;;;;;1.58;1.10;;;10.40;97.10;;;;;;5031188;28;20072;-39
2023/12/06 06:25:25;;;;;;;1.70;1.30;;;10.40;97.20;;;;;;5031237;28;20064;-43
2023/12/06 06:27:50;;;;;;;1.83;1.20;;;10.40;97.20;;;;;;5032152;28;20037;-42
2023/12/06 06:30:16;;;;;;;1.55;1.15;;;10.40;97.10;;;;;;5031232;28;20075;-43
2023/12/06 06:32:42;;;;;;;1.65;1.13;;;10.40;97.20;;;;;;5031285;28;20025;-40
2023/12/06 06:35:07;;;;;;;1.35;1.08;;;10.40;97.20;;;;;;5031949;28;20021;-42
2023/12/06 06:37:34;;;;;;;1.20;0.90;;;10.40;97.20;;;;;;5032177;28;20426;-39
2023/12/06 06:39:59;;;;;;;1.85;1.30;;;10.40;97.20;;;;;;5031967;28;20104;-43
2023/12/06 06:42:25;;;;;;;1.42;0.95;;;10.40;97.20;;;;;;5031147;28;20112;-43
2023/12/06 06:44:55;;;;;;;1.27;0.90;;;10.40;97.20;;;;;;5031850;28;20030;-43
2023/12/06 06:47:21;;;;;;;1.55;1.10;;;10.40;97.20;;;;;;5030903;28;20117;-41
2023/12/06 06:49:47;;;;;;;1.77;1.10;;;10.40;97.30;;;;;;5031426;28;20116;-42
2023/12/06 06:52:12;;;;;;;1.02;0.88;;;10.40;97.30;;;;;;5031069;28;20029;-43
2023/12/06 06:54:38;;;;;;;1.42;0.93;;;10.40;97.30;;;;;;5031040;28;20356;-43
2023/12/06 06:57:04;;;;;;;1.88;0.98;;;10.30;97.30;;;;;;5030879;28;20117;-41
2023/12/06 06:59:29;;;;;;;1.17;0.85;;;10.40;97.30;;;;;;5030926;28;20026;-43
2023/12/06 07:01:55;;;;;;;1.55;0.90;;;10.40;97.30;;;;;;5031105;28;20033;-41
2023/12/06 07:04:21;;;;;;;1.15;0.80;;;10.40;97.30;;;;;;5030828;28;20034;-42
2023/12/06 07:06:46;;;;;;;1.45;0.82;;;10.50;97.30;;;;;;5030934;28;20104;-41
2023/12/06 07:09:12;;;;;;;1.40;0.90;;;10.50;97.20;;;;;;5030697;28;20116;-43
2023/12/06 07:11:38;;;;;;;1.10;0.90;;;10.50;97.20;;;;;;5030859;28;20173;-43
2023/12/06 07:14:03;;;;;;;1.17;0.90;;;10.50;97.20;;;;;;5031184;28;20060;-44
2023/12/06 07:16:29;;;;;;;1.30;0.90;;;10.60;97.50;;;;;;5031015;28;20026;-44
2023/12/06 07:18:54;;;;;;;1.10;0.90;;;10.60;97.10;;;;;;5030871;28;20021;-43
2023/12/06 07:21:21;;;;;;;1.15;0.80;;;10.60;97.10;;;;;;5030823;28;20029;-41
2023/12/06 07:23:47;;;;;;;1.02;0.75;;;10.70;97.10;;;;;;5030774;28;20048;-41
2023/12/06 07:26:12;;;;;;;0.90;0.75;;;10.70;97.00;;;;;;5031264;28;20033;-44
2023/12/06 07:28:39;;;;;;;1.05;0.80;;;10.70;97.00;;;;;;5031593;28;20041;-42
2023/12/06 07:31:05;;;;;;;1.00;0.82;;;10.70;96.90;;;;;;5031165;28;20022;-43
2023/12/06 07:33:31;;;;;;;1.40;0.90;;;10.70;96.90;;;;;;5030678;28;20159;-43
2023/12/06 07:35:56;;;;;;;0.95;0.73;;;10.80;96.90;;;;;;5030673;28;20100;-42
2023/12/06 07:38:22;;;;;;;0.90;0.77;;;10.80;96.90;;;;;;5032277;28;20390;-43
2023/12/06 07:40:48;;;;;;;1.92;1.00;;;10.80;96.80;;;;;;5034226;28;20105;-44
2023/12/06 07:43:13;;;;;;;0.90;0.70;;;10.90;96.80;;;;;;5034107;28;20025;-44
2023/12/06 07:45:39;;;;;;;1.90;0.80;;;10.90;96.80;;;;;;5034491;28;20021;-45
2023/12/06 07:48:05;;;;;;;1.35;0.70;;;10.90;96.70;;;;;;5034237;28;20025;-45
2023/12/06 07:50:31;;;;;;;1.50;0.93;;;10.90;96.80;;;;;;5034032;28;20029;-44
2023/12/06 07:52:56;;;;;;;1.27;1.00;;;10.90;96.90;;;;;;5034927;28;20028;-45
2023/12/06 07:55:22;;;;;;;1.77;0.80;;;10.90;97.00;;;;;;5034733;28;20087;-44
2023/12/06 07:57:48;;;;;;;1.33;0.80;;;10.90;97.10;;;;;;5034523;28;20494;-45
2023/12/06 08:00:14;;;;;;;1.90;0.70;;;10.90;97.20;;;;;;5033895;28;20057;-44
2023/12/06 08:02:42;;;;;;;1.40;0.77;;;11.00;97.20;;;;;;5033698;28;20380;-44
2023/12/06 08:05:09;;;;;;;1.30;0.70;;;11.00;97.30;;;;;;5033855;28;20393;-45
2023/12/06 08:07:35;;;;;;;1.20;0.73;;;11.00;97.30;;;;;;5033636;28;20020;-45
2023/12/06 08:10:10;;;;;;;1.02;0.70;;;11.10;97.40;;;;;;5033770;28;20399;-44
2023/12/06 08:12:37;;;;;;;1.05;0.70;;;11.10;97.40;;;;;;5033843;28;20021;-44
2023/12/06 08:15:07;;;;;;;0.82;0.50;;;11.10;97.40;;;;;;5034116;28;20052;-45
2023/12/06 08:17:32;;;;;;;1.38;0.70;;;11.20;97.40;;;;;;5033394;28;20387;-44
2023/12/06 08:19:59;;;;;;;0.80;0.60;;;11.10;97.40;;;;;;5033484;28;20029;-45
2023/12/06 08:22:26;;;;;;;0.82;0.70;;;11.20;97.40;;;;;;5033413;28;20114;-45
2023/12/06 08:24:56;;;;;;;0.68;0.52;;;11.20;97.40;;;;;;5033635;28;20032;-45
2023/12/06 08:27:29;;;;;;;1.27;0.60;;;11.30;97.40;;;;;;5033273;28;20026;-45
2023/12/06 08:29:56;;;;;;;0.70;0.52;;;11.30;97.40;;;;;;5033562;28;20036;-45
2023/12/06 08:32:22;;;;;;;0.90;0.70;;;11.30;97.30;;;;;;5033240;28;20026;-45
2023/12/06 08:34:48;;;;;;;1.15;0.73;;;11.40;97.30;;;;;;5033604;28;20025;-44
2023/12/06 08:37:13;;;;;;;1.10;0.68;;;11.40;97.30;;;;;;5033242;28;20021;-44
2023/12/06 08:39:39;;;;;;;1.27;0.60;;;11.40;97.30;;;;;;5033632;28;20032;-45
2023/12/06 08:42:05;;;;;;;0.98;0.70;;;11.50;97.20;;;;;;5033585;28;20483;-45
2023/12/06 08:44:31;;;;;;;0.80;0.60;;;11.50;97.20;;;;;;5033539;28;20033;-45
2023/12/06 08:46:57;;;;;;;1.40;0.90;;;11.60;97.20;;;;;;5032970;28;20025;-44
2023/12/06 08:49:22;;;;;;;1.13;0.80;;;11.60;97.20;;;;;;5032204;28;20071;-45
2023/12/06 08:51:48;;;;;;;1.30;0.80;;;11.60;97.10;;;;;;5033238;28;20025;-45
2023/12/06 08:54:14;;;;;;;1.58;0.90;;;11.70;97.00;;;;;;5032905;28;20061;-44
2023/12/06 08:56:39;;;;;;;1.13;0.73;;;11.70;97.00;;;;;;5032890;28;20067;-45
2023/12/06 08:59:06;;;;;;;1.38;0.80;;;11.70;96.90;;;;;;5033157;28;20392;-45
2023/12/06 09:01:31;;;;;;;1.23;0.80;;;11.70;96.90;;;;;;5032832;28;20022;-44
2023/12/06 09:03:57;;;;;;;1.02;0.65;;;11.80;96.90;;;;;;5032623;28;20396;-45
2023/12/06 09:06:23;;;;;;;1.52;0.82;;;11.80;96.80;;;;;;5032875;28;20029;-44
2023/12/06 09:08:48;;;;;;;0.80;0.70;;;11.90;96.80;;;;;;5032501;28;20091;-45
2023/12/06 09:11:21;;;;;;;1.33;0.73;;;11.90;96.70;;;;;;5032533;28;20120;-45
2023/12/06 09:13:48;;;;;;;0.80;0.75;;;11.90;96.70;;;;;;5034612;28;20032;-44
2023/12/06 09:16:14;;;;;;;1.90;0.80;;;11.90;96.60;;;;;;5032738;28;20030;-45
2023/12/06 09:18:39;;;;;;;1.40;0.90;;;11.90;96.60;;;;;;5032363;28;20022;-44
2023/12/06 09:21:05;;;;;;;1.00;0.80;;;12.00;96.60;;;;;;5032815;28;20139;-44
2023/12/06 09:23:31;;;;;;;1.17;0.85;;;12.00;96.60;;;;;;5033392;28;20419;-44
2023/12/06 09:25:59;;;;;;;1.20;0.75;;;12.00;96.60;;;;;;5032704;28;20034;-45
2023/12/06 09:28:25;;;;;;;1.35;0.90;;;12.00;96.50;;;;;;5032489;28;20654;-44
2023/12/06 09:30:51;;;;;;;1.27;0.85;;;12.00;96.50;;;;;;5032941;28;20109;-45
2023/12/06 09:33:18;;;;;;;1.08;0.80;;;12.10;96.40;;;;;;5032144;28;20084;-45
2023/12/06 09:35:44;;;;;;;1.10;0.95;;;12.10;96.40;;;;;;5032044;28;20108;-44
2023/12/06 09:38:09;;;;;;;1.10;0.90;;;12.10;96.30;;;;;;5031984;28;20152;-44
2023/12/06 09:40:35;;;;;;;1.77;0.95;;;12.20;96.30;;;;;;5031936;28;20033;-45
2023/12/06 09:43:02;;;;;;;1.60;1.10;;;12.20;96.30;;;;;;5032493;28;20030;-45
2023/12/06 09:45:29;;;;;;;1.63;1.00;;;12.20;96.20;;;;;;5031769;28;20399;-44
2023/12/06 09:47:55;;;;;;;1.45;0.88;;;12.20;96.20;;;;;;5031675;28;20025;-44
2023/12/06 09:50:23;;;;;;;1.00;0.90;;;12.30;96.20;;;;;;5031827;28;20296;-45
2023/12/06 09:52:52;;;;;;;1.15;1.00;;;12.30;96.10;;;;;;5031765;28;20475;-44
2023/12/06 09:55:25;;;;;;;1.35;1.00;;;12.30;96.10;;;;;;5031757;28;20403;-45
2023/12/06 09:57:56;;;;;;;1.40;1.08;;;12.30;96.00;;;;;;5032543;28;20049;-44
2023/12/06 10:00:22;;;;;;;1.27;0.95;;;12.30;96.00;;;;;;5031713;28;20360;-44
2023/12/06 10:02:57;;;;;;;1.20;0.90;;;12.40;96.00;;;;;;5031912;28;20028;-44
2023/12/06 10:05:23;;;;;;;1.75;1.10;;;12.40;95.90;;;;;;5031559;28;20017;-45
2023/12/06 10:07:50;;;;;;;1.27;1.05;;;12.40;95.90;;;;;;5031488;28;20053;-44
2023/12/06 10:10:17;;;;;;;1.90;1.02;;;12.40;95.80;;;;;;5031367;28;20033;-45
2023/12/06 10:12:52;;;;;;;1.65;1.23;;;12.50;95.90;;;;;;5031539;28;20022;-44
2023/12/06 10:15:19;;;;;;;2.35;1.10;;;12.50;95.80;;;;;;5031964;28;20025;-45
2023/12/06 10:17:46;;;;;;;1.80;1.30;;;12.50;95.80;;;;;;5031835;28;20033;-43
2023/12/06 10:20:13;;;;;;;0.98;0.85;;;12.50;95.70;;;;;;5031445;28;20025;-44
2023/12/06 10:22:38;;;;;;;1.67;1.38;;;12.50;95.70;;;;;;5031136;28;20033;-44
2023/12/06 10:25:08;;;;;;;1.98;1.20;;;12.60;95.70;;;;;;5031357;28;20031;-44
2023/12/06 10:27:35;;;;;;;1.45;1.00;;;12.60;95.70;;;;;;5031632;28;20021;-44
2023/12/06 10:30:05;;;;;;;1.20;1.02;;;12.60;96.00;;;;;;5031113;28;20033;-45
2023/12/06 10:32:32;;;;;;;1.67;1.20;;;12.60;95.60;;;;;;5031368;28;20068;-45
2023/12/06 10:34:59;;;;;;;1.65;1.02;;;12.60;95.60;;;;;;5031247;28;20141;-45
2023/12/06 10:37:26;;;;;;;1.42;1.05;;;12.60;95.60;;;;;;5031203;28;20013;-45
2023/12/06 10:40:09;;;;;;;1.63;1.13;;;12.60;95.50;;;;;;5031095;28;20052;-44
2023/12/06 10:42:36;;;;;;;1.17;0.98;;;12.60;95.50;;;;;;5031621;28;20053;-44
2023/12/06 10:45:03;;;;;;;1.40;1.00;;;12.60;95.50;;;;;;5031558;28;20143;-45
2023/12/06 10:47:29;;;;;;;1.30;1.20;;;12.70;95.50;;;;;;5031451;28;20061;-44
2023/12/06 10:49:56;;;;;;;1.25;1.10;;;12.70;95.40;;;;;;5031035;28;20436;-45
2023/12/06 10:52:23;;;;;;;1.40;1.20;;;12.70;95.40;;;;;;5031272;28;20498;-45
2023/12/06 10:54:50;;;;;;;1.88;1.27;;;12.70;95.40;;;;;;5031006;28;20364;-44
2023/12/06 10:57:17;;;;;;;1.67;1.13;;;12.70;95.40;;;;;;5031390;28;20025;-44
2023/12/06 10:59:43;;;;;;;1.63;1.10;;;12.70;95.30;;;;;;5031822;28;20128;-45
2023/12/06 11:02:12;;;;;;;1.30;1.00;;;12.80;95.40;;;;;;5031614;28;20029;-46
2023/12/06 11:04:51;;;;;;;1.35;1.10;;;12.80;95.30;;;;;;5031851;28;20037;-45
2023/12/06 11:07:42;;;;;;;1.50;1.13;;;12.80;95.30;;;;;;5031649;28;20025;-44
2023/12/06 11:10:21;;;;;;;1.55;1.20;;;12.80;95.30;;;;;;5031433;28;20399;-44
2023/12/06 11:12:52;;;;;;;1.35;1.17;;;12.80;95.30;;;;;;5031834;28;20383;-44
2023/12/06 11:15:59;;;;;;;1.55;1.15;;;12.80;95.20;;;;;;5036308;28;20059;-45
2023/12/06 11:18:28;;;;;;;1.60;1.00;;;12.80;95.20;;;;;;5022418;28;20037;-44
2023/12/06 11:20:54;;;;;;;1.60;1.35;;;12.80;95.20;;;;;;5035238;28;20029;-45
2023/12/06 11:23:21;;;;;;;1.95;1.30;;;12.80;95.20;;;;;;5033833;28;20410;-44
2023/12/06 11:25:49;;;;;;;2.22;1.23;;;12.80;95.10;;;;;;5035386;28;20022;-44
2023/12/06 11:28:17;;;;;;;1.40;1.10;;;12.90;95.20;;;;;;5035551;28;20112;-45
2023/12/06 11:31:01;;;;;;;1.75;1.20;;;12.90;95.20;;;;;;5034703;28;20030;-45
2023/12/06 11:33:26;;;;;;;2.33;1.52;;;12.90;95.10;;;;;;5034609;28;20022;-45
2023/12/06 11:35:55;;;;;;;1.95;1.42;;;12.90;95.10;;;;;;5035578;28;20120;-44
2023/12/06 11:38:33;;;;;;;2.03;1.40;;;12.90;95.10;;;;;;5034366;28;20029;-45
2023/12/06 11:40:59;;;;;;;2.00;1.40;;;12.90;95.10;;;;;;5034392;28;20108;-45
2023/12/06 11:43:31;;;;;;;2.33;1.38;;;12.90;95.10;;;;;;5034271;28;20104;-44
2023/12/06 11:46:04;;;;;;;1.95;1.33;;;12.90;95.00;;;;;;5035271;28;20053;-44
2023/12/06 11:48:32;;;;;;;1.67;1.30;;;12.90;95.00;;;;;;5033982;28;20018;-44
2023/12/06 11:51:00;;;;;;;2.08;1.50;;;12.90;95.00;;;;;;5034702;28;20026;-44
2023/12/06 11:53:29;;;;;;;1.73;1.33;;;12.90;95.00;;;;;;5035250;28;20499;-45
2023/12/06 11:55:55;;;;;;;2.42;1.30;;;13.00;95.00;;;;;;5034182;28;20486;-46
2023/12/06 11:58:21;;;;;;;1.95;1.23;;;12.90;95.00;;;;;;5033914;28;20033;-45
2023/12/06 12:00:51;;;;;;;1.55;1.20;;;13.00;95.00;;;;;;5033812;28;20017;-45
2023/12/06 12:03:17;;;;;;;1.42;1.15;;;13.00;95.00;;;;;;5034121;28;20160;-44
2023/12/06 12:05:44;;;;;;;1.30;1.20;;;13.00;95.00;;;;;;5033669;28;20480;-45
2023/12/06 12:08:13;;;;;;;1.50;1.33;;;13.00;94.90;;;;;;5033648;28;20056;-44
2023/12/06 12:10:40;;;;;;;2.50;1.77;;;13.00;94.90;;;;;;5034196;28;20025;-44
2023/12/06 12:13:23;;;;;;;1.58;1.30;;;13.00;94.90;;;;;;5033966;28;20036;-44
2023/12/06 12:15:59;;;;;;;1.40;1.17;;;13.00;94.90;;;;;;5033527;28;20096;-45
2023/12/06 12:18:26;;;;;;;2.00;1.35;;;13.00;94.90;;;;;;5033524;28;20466;-44
2023/12/06 12:20:52;;;;;;;1.73;1.40;;;13.00;94.90;;;;;;5033439;28;20064;-45
2023/12/06 12:23:17;;;;;;;1.92;1.40;;;13.00;94.90;;;;;;5032905;28;20065;-44
2023/12/06 12:25:49;;;;;;;2.25;1.45;;;13.00;94.90;;;;;;5033310;28;20040;-44
2023/12/06 12:28:19;;;;;;;1.92;1.40;;;13.00;94.90;;;;;;5033627;28;20399;-44
2023/12/06 12:30:59;;;;;;;1.58;1.48;;;13.00;94.80;;;;;;5033389;28;20111;-44
2023/12/06 12:33:26;;;;;;;2.22;1.40;;;13.00;94.80;;;;;;5033419;28;20025;-45
2023/12/06 12:35:52;;;;;;;1.95;1.52;;;13.00;94.80;;;;;;5033126;28;20079;-45
2023/12/06 12:38:18;;;;;;;1.77;1.30;;;13.10;94.80;;;;;;5034321;28;20116;-44
2023/12/06 12:40:44;;;;;;;1.40;1.20;;;13.10;94.80;;;;;;5034633;28;20021;-45
2023/12/06 12:43:13;;;;;;;2.03;1.50;;;13.00;94.80;;;;;;5033378;28;20563;-45
2023/12/06 12:45:38;;;;;;;2.50;1.50;;;13.10;94.80;;;;;;5033057;28;20053;-44